La Gomera > ESTACION METEOROLÓGICA Vallehermoso

DATOS ACTUALES Online

Ultima actulizacion 44 minutos

21.3 ºC

Temperatura

70

Humedad (%)

1015.23

Presión (mb)

0

Precipitación (mm)

17 O

Viento (Km/h)

DATOS DIARIOS

Temperatura últimas 24 horas (ºC)

Humedad últimas 24 horas (%)

Presión atmosférica últimas 24 horas (mb)

Precipitaciones últimas 23 horas (mm)

Viento últimas 24 horas (Km/h)

Hora Temperatura (°C) ºC Precipitación (mm) mm Presión (mb) mb Humedad (%) % Viento (Km/h) km/h
28 - 23:00 18.7 0 1016 69 12.2 SW
29 - 00:00 18.7 0 1017 68 12.1 SW
29 - 01:00 18.8 0 1016 69 11.2 SW
29 - 02:00 18.7 0 1016 70 13 SW
29 - 03:00 18.6 0 1015 70 16.8 S
29 - 04:00 18.7 0 1015 70 15.2 SW
29 - 05:00 18.8 0 1015 68 13.8 SW
29 - 06:00 18.4 0 1015 67 12.5 SW
29 - 07:00 18.5 0 1015 66 11.2 SW
29 - 08:00 19.1 0 1016 65 13 SW
29 - 09:00 21.8 0 1016 60 7.5 O
29 - 10:00 21.6 0 1016 65 9.7 NO
29 - 11:00 21.7 0 1016 64 11.3 O
29 - 12:00 21.8 0 1016 64 11.4 O
29 - 13:00 22.1 0 1016 59 11.7 NO
29 - 14:00 22.1 0 1015 64 14.9 NO
29 - 15:00 21.6 0 1015 67 19.5 NO
29 - 16:00 22.2 0 1015 67 19.3 O
29 - 17:00 22 0 1015 66 18.9 NO
29 - 18:00 21.9 0 1015 66 15.3 O
29 - 19:00 21.5 0 1015 70 14.2 NO
29 - 20:00 21.4 0 1015 69 12.6 NO
29 - 21:00 21.3 0 1015 68 14.1 O
29 - 22:00 21.3 0 1015 70 17 O
29 - 23:00
Apalmet utiliza cookies propias y de terceros para mejorar la usabilidad y la experiencia web. Política de cookies.